sensor_id;sensor_type;location;lat;lon;timestamp;temperature;humidity
23629;DHT22;11991;57.150;-2.134;2023-06-10T00:01:44;13.10;99.90
23629;DHT22;11991;57.150;-2.134;2023-06-10T00:04:15;13.20;99.90
23629;DHT22;11991;57.150;-2.134;2023-06-10T00:06:44;13.20;99.90
23629;DHT22;11991;57.150;-2.134;2023-06-10T00:09:12;13.10;99.90
23629;DHT22;11991;57.150;-2.134;2023-06-10T00:11:41;13.10;99.90
23629;DHT22;11991;57.150;-2.134;2023-06-10T00:14:08;13.00;99.90
23629;DHT22;11991;57.150;-2.134;2023-06-10T00:16:36;13.00;99.90
23629;DHT22;11991;57.150;-2.134;2023-06-10T00:19:04;13.00;99.90
23629;DHT22;11991;57.150;-2.134;2023-06-10T00:21:32;13.00;99.90
23629;DHT22;11991;57.150;-2.134;2023-06-10T00:24:08;13.00;99.90
23629;DHT22;11991;57.150;-2.134;2023-06-10T00:26:40;13.00;99.90
23629;DHT22;11991;57.150;-2.134;2023-06-10T00:29:08;12.90;99.90
23629;DHT22;11991;57.150;-2.134;2023-06-10T00:31:37;12.90;99.90
23629;DHT22;11991;57.150;-2.134;2023-06-10T00:34:06;12.90;99.90
23629;DHT22;11991;57.150;-2.134;2023-06-10T00:36:34;13.00;99.90
23629;DHT22;11991;57.150;-2.134;2023-06-10T00:39:03;13.00;99.90
23629;DHT22;11991;57.150;-2.134;2023-06-10T00:41:31;13.00;99.90
23629;DHT22;11991;57.150;-2.134;2023-06-10T00:44:01;12.90;99.90
23629;DHT22;11991;57.150;-2.134;2023-06-10T00:46:28;12.90;99.90
23629;DHT22;11991;57.150;-2.134;2023-06-10T00:48:55;12.90;99.90
23629;DHT22;11991;57.150;-2.134;2023-06-10T00:51:23;12.90;99.90
23629;DHT22;11991;57.150;-2.134;2023-06-10T00:53:52;12.90;99.90
23629;DHT22;11991;57.150;-2.134;2023-06-10T00:56:20;12.90;99.90
23629;DHT22;11991;57.150;-2.134;2023-06-10T00:58:48;12.90;99.90
23629;DHT22;11991;57.150;-2.134;2023-06-10T01:01:15;12.90;99.90
23629;DHT22;11991;57.150;-2.134;2023-06-10T01:03:42;12.90;99.90
23629;DHT22;11991;57.150;-2.134;2023-06-10T01:09:40;12.80;99.90
23629;DHT22;11991;57.150;-2.134;2023-06-10T01:12:49;12.80;99.90
23629;DHT22;11991;57.150;-2.134;2023-06-10T01:15:09;12.80;99.90
23629;DHT22;11991;57.150;-2.134;2023-06-10T01:18:14;12.80;99.90
23629;DHT22;11991;57.150;-2.134;2023-06-10T01:20:44;12.90;99.90
23629;DHT22;11991;57.150;-2.134;2023-06-10T01:23:13;12.90;99.90
23629;DHT22;11991;57.150;-2.134;2023-06-10T01:25:56;12.90;99.90
23629;DHT22;11991;57.150;-2.134;2023-06-10T01:28:36;12.90;99.90
23629;DHT22;11991;57.150;-2.134;2023-06-10T01:34:12;12.80;99.90
23629;DHT22;11991;57.150;-2.134;2023-06-10T01:36:41;12.80;99.90
23629;DHT22;11991;57.150;-2.134;2023-06-10T01:39:10;12.80;99.90
23629;DHT22;11991;57.150;-2.134;2023-06-10T01:41:38;12.80;99.90
23629;DHT22;11991;57.150;-2.134;2023-06-10T01:44:06;12.80;99.90
23629;DHT22;11991;57.150;-2.134;2023-06-10T01:46:33;12.80;99.90
23629;DHT22;11991;57.150;-2.134;2023-06-10T01:49:00;12.70;99.90
23629;DHT22;11991;57.150;-2.134;2023-06-10T01:51:27;12.70;99.90
23629;DHT22;11991;57.150;-2.134;2023-06-10T01:53:54;12.70;99.90
23629;DHT22;11991;57.150;-2.134;2023-06-10T01:56:21;12.60;99.90
23629;DHT22;11991;57.150;-2.134;2023-06-10T01:58:48;12.60;99.90
23629;DHT22;11991;57.150;-2.134;2023-06-10T02:01:16;12.60;99.90
23629;DHT22;11991;57.150;-2.134;2023-06-10T02:03:43;12.50;99.90
23629;DHT22;11991;57.150;-2.134;2023-06-10T02:06:10;12.50;99.90
23629;DHT22;11991;57.150;-2.134;2023-06-10T02:08:38;12.40;99.90
23629;DHT22;11991;57.150;-2.134;2023-06-10T02:11:05;12.40;99.90
23629;DHT22;11991;57.150;-2.134;2023-06-10T02:13:34;12.40;99.90
23629;DHT22;11991;57.150;-2.134;2023-06-10T02:16:01;12.40;99.90
23629;DHT22;11991;57.150;-2.134;2023-06-10T02:18:29;12.40;99.90
23629;DHT22;11991;57.150;-2.134;2023-06-10T02:20:56;12.40;99.90
23629;DHT22;11991;57.150;-2.134;2023-06-10T02:23:25;12.50;99.90
23629;DHT22;11991;57.150;-2.134;2023-06-10T02:25:52;12.60;99.90
23629;DHT22;11991;57.150;-2.134;2023-06-10T02:28:19;12.60;99.90
23629;DHT22;11991;57.150;-2.134;2023-06-10T02:30:46;12.60;99.90
23629;DHT22;11991;57.150;-2.134;2023-06-10T02:33:14;12.60;99.90
23629;DHT22;11991;57.150;-2.134;2023-06-10T02:35:43;12.70;99.90
23629;DHT22;11991;57.150;-2.134;2023-06-10T02:38:10;12.70;99.90
23629;DHT22;11991;57.150;-2.134;2023-06-10T02:40:37;12.70;99.90
23629;DHT22;11991;57.150;-2.134;2023-06-10T02:43:04;12.70;99.90
23629;DHT22;11991;57.150;-2.134;2023-06-10T02:45:32;12.70;99.90
23629;DHT22;11991;57.150;-2.134;2023-06-10T02:48:01;12.70;99.90
23629;DHT22;11991;57.150;-2.134;2023-06-10T02:50:29;12.70;99.90
23629;DHT22;11991;57.150;-2.134;2023-06-10T02:53:08;12.70;99.90
23629;DHT22;11991;57.150;-2.134;2023-06-10T02:55:38;12.70;99.90
23629;DHT22;11991;57.150;-2.134;2023-06-10T02:58:10;12.70;99.90
23629;DHT22;11991;57.150;-2.134;2023-06-10T03:00:37;12.70;99.90
23629;DHT22;11991;57.150;-2.134;2023-06-10T03:03:09;12.70;99.90
23629;DHT22;11991;57.150;-2.134;2023-06-10T03:05:46;12.70;99.90
23629;DHT22;11991;57.150;-2.134;2023-06-10T03:08:15;12.70;99.90
23629;DHT22;11991;57.150;-2.134;2023-06-10T03:10:44;12.80;99.90
23629;DHT22;11991;57.150;-2.134;2023-06-10T03:13:15;12.80;99.90
23629;DHT22;11991;57.150;-2.134;2023-06-10T03:15:42;12.80;99.90
23629;DHT22;11991;57.150;-2.134;2023-06-10T03:18:13;12.80;99.90
23629;DHT22;11991;57.150;-2.134;2023-06-10T03:20:42;12.80;99.90
23629;DHT22;11991;57.150;-2.134;2023-06-10T03:23:11;12.80;99.90
23629;DHT22;11991;57.150;-2.134;2023-06-10T03:25:40;12.80;99.90
23629;DHT22;11991;57.150;-2.134;2023-06-10T03:28:08;12.90;99.90
23629;DHT22;11991;57.150;-2.134;2023-06-10T03:30:36;12.90;99.90
23629;DHT22;11991;57.150;-2.134;2023-06-10T03:33:04;12.90;99.90
23629;DHT22;11991;57.150;-2.134;2023-06-10T03:35:31;12.90;99.90
23629;DHT22;11991;57.150;-2.134;2023-06-10T03:37:59;12.90;99.90
23629;DHT22;11991;57.150;-2.134;2023-06-10T03:40:27;12.90;99.90
23629;DHT22;11991;57.150;-2.134;2023-06-10T03:42:54;12.80;99.90
23629;DHT22;11991;57.150;-2.134;2023-06-10T03:45:21;12.80;99.90
23629;DHT22;11991;57.150;-2.134;2023-06-10T03:47:49;12.80;99.90
23629;DHT22;11991;57.150;-2.134;2023-06-10T03:50:20;12.80;99.90
23629;DHT22;11991;57.150;-2.134;2023-06-10T03:52:47;12.80;99.90
23629;DHT22;11991;57.150;-2.134;2023-06-10T03:55:18;12.80;99.90
23629;DHT22;11991;57.150;-2.134;2023-06-10T03:57:45;12.80;99.90
23629;DHT22;11991;57.150;-2.134;2023-06-10T04:00:12;12.80;99.90
23629;DHT22;11991;57.150;-2.134;2023-06-10T04:02:43;12.80;99.90
23629;DHT22;11991;57.150;-2.134;2023-06-10T04:05:23;12.80;99.90
23629;DHT22;11991;57.150;-2.134;2023-06-10T04:07:51;12.80;99.90
23629;DHT22;11991;57.150;-2.134;2023-06-10T04:10:19;12.90;99.90
23629;DHT22;11991;57.150;-2.134;2023-06-10T04:12:46;12.80;99.90
23629;DHT22;11991;57.150;-2.134;2023-06-10T04:15:13;12.90;99.90
23629;DHT22;11991;57.150;-2.134;2023-06-10T04:17:41;12.80;99.90
23629;DHT22;11991;57.150;-2.134;2023-06-10T04:20:11;12.90;99.90
23629;DHT22;11991;57.150;-2.134;2023-06-10T04:22:42;12.90;99.90
23629;DHT22;11991;57.150;-2.134;2023-06-10T04:25:10;12.90;99.90
23629;DHT22;11991;57.150;-2.134;2023-06-10T04:27:39;12.90;99.90
23629;DHT22;11991;57.150;-2.134;2023-06-10T04:30:07;12.90;99.90
23629;DHT22;11991;57.150;-2.134;2023-06-10T04:32:36;12.90;99.90
23629;DHT22;11991;57.150;-2.134;2023-06-10T04:35:07;12.90;99.90
23629;DHT22;11991;57.150;-2.134;2023-06-10T04:37:36;12.90;99.90
23629;DHT22;11991;57.150;-2.134;2023-06-10T04:40:03;12.90;99.90
23629;DHT22;11991;57.150;-2.134;2023-06-10T04:42:31;13.00;99.90
23629;DHT22;11991;57.150;-2.134;2023-06-10T04:44:58;13.00;99.90
23629;DHT22;11991;57.150;-2.134;2023-06-10T04:47:26;13.00;99.90
23629;DHT22;11991;57.150;-2.134;2023-06-10T04:49:53;13.10;99.90
23629;DHT22;11991;57.150;-2.134;2023-06-10T04:52:20;13.00;99.90
23629;DHT22;11991;57.150;-2.134;2023-06-10T04:54:48;13.00;99.90
23629;DHT22;11991;57.150;-2.134;2023-06-10T04:57:15;13.00;99.90
23629;DHT22;11991;57.150;-2.134;2023-06-10T04:59:42;13.00;99.90
23629;DHT22;11991;57.150;-2.134;2023-06-10T05:02:10;13.00;99.90
23629;DHT22;11991;57.150;-2.134;2023-06-10T05:04:37;13.00;99.90
23629;DHT22;11991;57.150;-2.134;2023-06-10T05:07:04;13.00;99.90
23629;DHT22;11991;57.150;-2.134;2023-06-10T05:09:32;13.00;99.90
23629;DHT22;11991;57.150;-2.134;2023-06-10T05:11:59;13.00;99.90
23629;DHT22;11991;57.150;-2.134;2023-06-10T05:14:27;13.00;99.90
23629;DHT22;11991;57.150;-2.134;2023-06-10T05:16:54;13.00;99.90
23629;DHT22;11991;57.150;-2.134;2023-06-10T05:19:21;12.90;99.90
23629;DHT22;11991;57.150;-2.134;2023-06-10T05:21:48;12.90;99.90
23629;DHT22;11991;57.150;-2.134;2023-06-10T05:24:16;12.90;99.90
23629;DHT22;11991;57.150;-2.134;2023-06-10T05:26:43;12.90;99.90
23629;DHT22;11991;57.150;-2.134;2023-06-10T05:29:11;12.90;99.90
23629;DHT22;11991;57.150;-2.134;2023-06-10T05:31:38;12.90;99.90
23629;DHT22;11991;57.150;-2.134;2023-06-10T05:34:05;12.90;99.90
23629;DHT22;11991;57.150;-2.134;2023-06-10T05:36:32;12.90;99.90
23629;DHT22;11991;57.150;-2.134;2023-06-10T05:38:59;13.00;99.90
23629;DHT22;11991;57.150;-2.134;2023-06-10T05:41:26;13.00;99.90
23629;DHT22;11991;57.150;-2.134;2023-06-10T05:43:54;13.10;99.90
23629;DHT22;11991;57.150;-2.134;2023-06-10T05:46:21;13.10;99.90
23629;DHT22;11991;57.150;-2.134;2023-06-10T05:48:48;13.20;99.90
23629;DHT22;11991;57.150;-2.134;2023-06-10T05:51:15;13.20;99.90
23629;DHT22;11991;57.150;-2.134;2023-06-10T05:53:42;13.20;99.90
23629;DHT22;11991;57.150;-2.134;2023-06-10T05:56:09;13.20;99.90
23629;DHT22;11991;57.150;-2.134;2023-06-10T05:58:36;13.30;99.90
23629;DHT22;11991;57.150;-2.134;2023-06-10T06:01:04;13.30;99.90
23629;DHT22;11991;57.150;-2.134;2023-06-10T06:03:31;13.40;99.90
23629;DHT22;11991;57.150;-2.134;2023-06-10T06:05:59;13.40;99.90
23629;DHT22;11991;57.150;-2.134;2023-06-10T06:08:26;13.50;99.90
23629;DHT22;11991;57.150;-2.134;2023-06-10T06:10:53;13.50;99.90
23629;DHT22;11991;57.150;-2.134;2023-06-10T06:13:20;13.60;99.90
23629;DHT22;11991;57.150;-2.134;2023-06-10T06:15:47;13.60;99.90
23629;DHT22;11991;57.150;-2.134;2023-06-10T06:18:14;13.60;99.90
23629;DHT22;11991;57.150;-2.134;2023-06-10T06:20:42;13.60;99.90
23629;DHT22;11991;57.150;-2.134;2023-06-10T06:23:09;13.60;99.90
23629;DHT22;11991;57.150;-2.134;2023-06-10T06:25:37;13.60;99.90
23629;DHT22;11991;57.150;-2.134;2023-06-10T06:28:06;13.60;99.90
23629;DHT22;11991;57.150;-2.134;2023-06-10T06:30:36;13.60;99.90
23629;DHT22;11991;57.150;-2.134;2023-06-10T06:33:03;13.60;99.90
23629;DHT22;11991;57.150;-2.134;2023-06-10T06:35:32;13.60;99.90
23629;DHT22;11991;57.150;-2.134;2023-06-10T06:37:59;13.60;99.90
23629;DHT22;11991;57.150;-2.134;2023-06-10T06:40:28;13.60;99.90
23629;DHT22;11991;57.150;-2.134;2023-06-10T06:42:55;13.60;99.90
23629;DHT22;11991;57.150;-2.134;2023-06-10T06:45:35;13.50;99.90
23629;DHT22;11991;57.150;-2.134;2023-06-10T06:48:02;13.50;99.90
23629;DHT22;11991;57.150;-2.134;2023-06-10T06:50:29;13.60;99.90
23629;DHT22;11991;57.150;-2.134;2023-06-10T06:52:57;13.60;99.90
23629;DHT22;11991;57.150;-2.134;2023-06-10T06:55:24;13.70;99.90
23629;DHT22;11991;57.150;-2.134;2023-06-10T06:57:51;13.60;99.90
23629;DHT22;11991;57.150;-2.134;2023-06-10T07:00:18;13.60;99.90
23629;DHT22;11991;57.150;-2.134;2023-06-10T07:02:45;13.60;99.90
23629;DHT22;11991;57.150;-2.134;2023-06-10T07:05:12;13.50;99.90
23629;DHT22;11991;57.150;-2.134;2023-06-10T07:07:40;13.50;99.90
23629;DHT22;11991;57.150;-2.134;2023-06-10T07:10:07;13.50;99.90
23629;DHT22;11991;57.150;-2.134;2023-06-10T07:12:35;13.50;99.90
23629;DHT22;11991;57.150;-2.134;2023-06-10T07:15:02;13.60;99.90
23629;DHT22;11991;57.150;-2.134;2023-06-10T07:17:29;13.60;99.90
23629;DHT22;11991;57.150;-2.134;2023-06-10T07:19:56;13.60;99.90
23629;DHT22;11991;57.150;-2.134;2023-06-10T07:22:26;13.70;99.90
23629;DHT22;11991;57.150;-2.134;2023-06-10T07:24:53;13.70;99.90
23629;DHT22;11991;57.150;-2.134;2023-06-10T07:27:22;13.70;99.90
23629;DHT22;11991;57.150;-2.134;2023-06-10T07:29:50;13.80;99.90
23629;DHT22;11991;57.150;-2.134;2023-06-10T07:32:17;13.80;99.90
23629;DHT22;11991;57.150;-2.134;2023-06-10T07:34:45;13.80;99.90
23629;DHT22;11991;57.150;-2.134;2023-06-10T07:37:12;13.80;99.90
23629;DHT22;11991;57.150;-2.134;2023-06-10T07:39:39;13.90;99.90
23629;DHT22;11991;57.150;-2.134;2023-06-10T07:42:07;13.90;99.90
23629;DHT22;11991;57.150;-2.134;2023-06-10T07:44:35;14.00;99.90
23629;DHT22;11991;57.150;-2.134;2023-06-10T07:47:02;14.00;99.90
23629;DHT22;11991;57.150;-2.134;2023-06-10T07:49:29;14.00;99.90
23629;DHT22;11991;57.150;-2.134;2023-06-10T07:51:57;14.10;99.90
23629;DHT22;11991;57.150;-2.134;2023-06-10T07:54:24;14.10;99.90
23629;DHT22;11991;57.150;-2.134;2023-06-10T07:56:55;14.10;99.90
23629;DHT22;11991;57.150;-2.134;2023-06-10T07:59:22;14.10;99.90
23629;DHT22;11991;57.150;-2.134;2023-06-10T08:01:50;14.10;99.90
23629;DHT22;11991;57.150;-2.134;2023-06-10T08:04:17;14.10;99.90
23629;DHT22;11991;57.150;-2.134;2023-06-10T08:06:44;14.10;99.90
23629;DHT22;11991;57.150;-2.134;2023-06-10T08:09:11;14.20;99.90
23629;DHT22;11991;57.150;-2.134;2023-06-10T08:11:38;14.20;99.90
23629;DHT22;11991;57.150;-2.134;2023-06-10T08:14:06;14.30;99.90
23629;DHT22;11991;57.150;-2.134;2023-06-10T08:16:33;14.40;99.90
23629;DHT22;11991;57.150;-2.134;2023-06-10T08:19:00;14.40;99.90
23629;DHT22;11991;57.150;-2.134;2023-06-10T08:21:27;14.40;99.90
23629;DHT22;11991;57.150;-2.134;2023-06-10T08:23:56;14.50;99.90
23629;DHT22;11991;57.150;-2.134;2023-06-10T08:26:24;14.50;99.90
23629;DHT22;11991;57.150;-2.134;2023-06-10T08:28:51;14.60;99.90
23629;DHT22;11991;57.150;-2.134;2023-06-10T08:31:18;14.60;99.90
23629;DHT22;11991;57.150;-2.134;2023-06-10T08:33:45;14.60;99.90
23629;DHT22;11991;57.150;-2.134;2023-06-10T08:36:12;14.70;99.90
23629;DHT22;11991;57.150;-2.134;2023-06-10T08:38:40;14.70;99.90
23629;DHT22;11991;57.150;-2.134;2023-06-10T08:41:08;14.80;99.90
23629;DHT22;11991;57.150;-2.134;2023-06-10T08:43:44;14.80;99.90
23629;DHT22;11991;57.150;-2.134;2023-06-10T08:46:14;14.90;99.90
23629;DHT22;11991;57.150;-2.134;2023-06-10T08:48:43;15.00;99.90
23629;DHT22;11991;57.150;-2.134;2023-06-10T08:51:11;15.00;99.90
23629;DHT22;11991;57.150;-2.134;2023-06-10T08:53:53;15.00;99.90
23629;DHT22;11991;57.150;-2.134;2023-06-10T08:56:25;15.10;99.90
23629;DHT22;11991;57.150;-2.134;2023-06-10T08:58:53;15.10;99.90
23629;DHT22;11991;57.150;-2.134;2023-06-10T09:01:21;15.10;99.90
23629;DHT22;11991;57.150;-2.134;2023-06-10T09:03:49;15.20;99.90
23629;DHT22;11991;57.150;-2.134;2023-06-10T09:06:18;15.20;99.90
23629;DHT22;11991;57.150;-2.134;2023-06-10T09:08:45;15.20;99.90
23629;DHT22;11991;57.150;-2.134;2023-06-10T09:11:13;15.30;99.90
23629;DHT22;11991;57.150;-2.134;2023-06-10T09:13:40;15.30;99.90
23629;DHT22;11991;57.150;-2.134;2023-06-10T09:16:07;15.30;99.90
23629;DHT22;11991;57.150;-2.134;2023-06-10T09:18:34;15.40;99.90
23629;DHT22;11991;57.150;-2.134;2023-06-10T09:21:02;15.40;99.90
23629;DHT22;11991;57.150;-2.134;2023-06-10T09:23:29;15.40;99.90
23629;DHT22;11991;57.150;-2.134;2023-06-10T09:25:57;15.50;99.90
23629;DHT22;11991;57.150;-2.134;2023-06-10T09:28:25;15.50;99.90
23629;DHT22;11991;57.150;-2.134;2023-06-10T09:31:06;15.50;99.90
23629;DHT22;11991;57.150;-2.134;2023-06-10T09:33:37;15.50;99.90
23629;DHT22;11991;57.150;-2.134;2023-06-10T09:36:06;15.50;99.90
23629;DHT22;11991;57.150;-2.134;2023-06-10T09:38:34;15.50;99.90
23629;DHT22;11991;57.150;-2.134;2023-06-10T09:41:03;15.50;99.90
23629;DHT22;11991;57.150;-2.134;2023-06-10T09:43:44;15.60;99.90
23629;DHT22;11991;57.150;-2.134;2023-06-10T09:46:19;15.70;99.90
23629;DHT22;11991;57.150;-2.134;2023-06-10T09:48:47;15.70;99.90
23629;DHT22;11991;57.150;-2.134;2023-06-10T09:51:15;15.70;99.90
23629;DHT22;11991;57.150;-2.134;2023-06-10T09:53:50;15.80;99.90
23629;DHT22;11991;57.150;-2.134;2023-06-10T09:56:18;15.80;99.90
23629;DHT22;11991;57.150;-2.134;2023-06-10T09:58:46;15.80;99.90
23629;DHT22;11991;57.150;-2.134;2023-06-10T10:01:14;15.90;99.90
23629;DHT22;11991;57.150;-2.134;2023-06-10T10:03:49;15.90;99.90
23629;DHT22;11991;57.150;-2.134;2023-06-10T10:06:18;15.90;99.90
23629;DHT22;11991;57.150;-2.134;2023-06-10T10:08:50;15.90;99.90
23629;DHT22;11991;57.150;-2.134;2023-06-10T10:11:22;16.00;99.90
23629;DHT22;11991;57.150;-2.134;2023-06-10T10:13:50;16.10;99.90
23629;DHT22;11991;57.150;-2.134;2023-06-10T10:16:26;16.10;99.90
23629;DHT22;11991;57.150;-2.134;2023-06-10T10:19:04;16.10;99.90
23629;DHT22;11991;57.150;-2.134;2023-06-10T10:21:40;16.10;99.90
23629;DHT22;11991;57.150;-2.134;2023-06-10T10:24:16;16.10;99.90
23629;DHT22;11991;57.150;-2.134;2023-06-10T10:26:48;16.20;99.90
23629;DHT22;11991;57.150;-2.134;2023-06-10T10:29:20;16.20;99.90
23629;DHT22;11991;57.150;-2.134;2023-06-10T10:31:51;16.20;99.90
23629;DHT22;11991;57.150;-2.134;2023-06-10T10:34:27;16.10;99.90
23629;DHT22;11991;57.150;-2.134;2023-06-10T10:36:57;16.20;99.90
23629;DHT22;11991;57.150;-2.134;2023-06-10T10:39:25;16.30;99.90
23629;DHT22;11991;57.150;-2.134;2023-06-10T10:41:55;16.30;99.90
23629;DHT22;11991;57.150;-2.134;2023-06-10T10:44:23;16.30;99.90
23629;DHT22;11991;57.150;-2.134;2023-06-10T10:46:51;16.40;99.90
23629;DHT22;11991;57.150;-2.134;2023-06-10T10:49:19;16.40;99.90
23629;DHT22;11991;57.150;-2.134;2023-06-10T10:51:57;16.50;99.90
23629;DHT22;11991;57.150;-2.134;2023-06-10T10:54:35;16.60;99.90
23629;DHT22;11991;57.150;-2.134;2023-06-10T11:02:32;16.70;99.90
23629;DHT22;11991;57.150;-2.134;2023-06-10T11:05:00;16.80;99.90
23629;DHT22;11991;57.150;-2.134;2023-06-10T11:07:32;16.80;99.90
23629;DHT22;11991;57.150;-2.134;2023-06-10T11:10:07;16.80;99.90
23629;DHT22;11991;57.150;-2.134;2023-06-10T11:15:13;16.80;99.90
23629;DHT22;11991;57.150;-2.134;2023-06-10T11:23:42;16.80;99.90
23629;DHT22;11991;57.150;-2.134;2023-06-10T11:26:15;16.90;99.90
23629;DHT22;11991;57.150;-2.134;2023-06-10T11:29:02;16.90;99.90
23629;DHT22;11991;57.150;-2.134;2023-06-10T11:31:31;16.90;99.90
23629;DHT22;11991;57.150;-2.134;2023-06-10T11:34:01;16.90;99.90
23629;DHT22;11991;57.150;-2.134;2023-06-10T11:36:31;16.80;99.90
23629;DHT22;11991;57.150;-2.134;2023-06-10T11:39:00;16.80;99.90
23629;DHT22;11991;57.150;-2.134;2023-06-10T11:41:29;16.80;99.90
23629;DHT22;11991;57.150;-2.134;2023-06-10T11:44:10;16.80;99.90
23629;DHT22;11991;57.150;-2.134;2023-06-10T11:46:38;16.90;99.90
23629;DHT22;11991;57.150;-2.134;2023-06-10T11:49:06;16.90;99.90
23629;DHT22;11991;57.150;-2.134;2023-06-10T11:51:35;16.90;99.90
23629;DHT22;11991;57.150;-2.134;2023-06-10T11:54:03;17.00;99.90
23629;DHT22;11991;57.150;-2.134;2023-06-10T11:56:31;17.00;99.90
23629;DHT22;11991;57.150;-2.134;2023-06-10T11:59:06;17.00;99.90
23629;DHT22;11991;57.150;-2.134;2023-06-10T12:01:38;17.00;99.90
23629;DHT22;11991;57.150;-2.134;2023-06-10T12:04:15;17.00;99.90
23629;DHT22;11991;57.150;-2.134;2023-06-10T12:06:48;17.10;99.90
23629;DHT22;11991;57.150;-2.134;2023-06-10T12:09:22;17.20;99.90
23629;DHT22;11991;57.150;-2.134;2023-06-10T12:12:03;17.30;99.90
23629;DHT22;11991;57.150;-2.134;2023-06-10T12:14:54;17.30;99.90
23629;DHT22;11991;57.150;-2.134;2023-06-10T12:20:03;17.40;99.90
23629;DHT22;11991;57.150;-2.134;2023-06-10T12:22:41;17.50;99.90
23629;DHT22;11991;57.150;-2.134;2023-06-10T12:25:10;17.50;99.90
23629;DHT22;11991;57.150;-2.134;2023-06-10T12:27:39;17.60;99.90
23629;DHT22;11991;57.150;-2.134;2023-06-10T12:30:08;17.60;99.90
23629;DHT22;11991;57.150;-2.134;2023-06-10T12:32:42;17.70;99.90
23629;DHT22;11991;57.150;-2.134;2023-06-10T12:35:17;17.70;99.90
23629;DHT22;11991;57.150;-2.134;2023-06-10T12:38:04;17.80;99.90
23629;DHT22;11991;57.150;-2.134;2023-06-10T12:40:38;17.80;99.90
23629;DHT22;11991;57.150;-2.134;2023-06-10T12:43:08;17.70;99.90
23629;DHT22;11991;57.150;-2.134;2023-06-10T12:45:37;17.70;99.90
23629;DHT22;11991;57.150;-2.134;2023-06-10T12:48:16;17.60;99.90
23629;DHT22;11991;57.150;-2.134;2023-06-10T12:50:47;17.50;99.90
23629;DHT22;11991;57.150;-2.134;2023-06-10T12:53:14;17.50;99.90
23629;DHT22;11991;57.150;-2.134;2023-06-10T12:55:41;17.40;99.90
23629;DHT22;11991;57.150;-2.134;2023-06-10T12:58:08;17.50;99.90
23629;DHT22;11991;57.150;-2.134;2023-06-10T13:00:36;17.50;99.90
23629;DHT22;11991;57.150;-2.134;2023-06-10T13:03:03;17.50;99.90
23629;DHT22;11991;57.150;-2.134;2023-06-10T13:05:35;17.70;99.90
23629;DHT22;11991;57.150;-2.134;2023-06-10T13:08:07;17.70;99.90
23629;DHT22;11991;57.150;-2.134;2023-06-10T13:10:34;17.80;99.90
23629;DHT22;11991;57.150;-2.134;2023-06-10T13:13:02;17.80;99.90
23629;DHT22;11991;57.150;-2.134;2023-06-10T13:15:33;17.80;99.90
23629;DHT22;11991;57.150;-2.134;2023-06-10T13:18:07;17.90;99.90
23629;DHT22;11991;57.150;-2.134;2023-06-10T13:20:34;17.90;99.90
23629;DHT22;11991;57.150;-2.134;2023-06-10T13:23:03;17.90;99.90
23629;DHT22;11991;57.150;-2.134;2023-06-10T13:25:30;18.00;99.90
23629;DHT22;11991;57.150;-2.134;2023-06-10T13:27:57;18.00;99.90
23629;DHT22;11991;57.150;-2.134;2023-06-10T13:30:25;18.00;99.90
23629;DHT22;11991;57.150;-2.134;2023-06-10T13:32:53;18.00;99.90
23629;DHT22;11991;57.150;-2.134;2023-06-10T13:35:20;18.00;99.90
23629;DHT22;11991;57.150;-2.134;2023-06-10T13:37:47;18.00;99.90
23629;DHT22;11991;57.150;-2.134;2023-06-10T13:40:15;18.10;99.90
23629;DHT22;11991;57.150;-2.134;2023-06-10T13:42:42;18.30;99.90
23629;DHT22;11991;57.150;-2.134;2023-06-10T13:45:09;18.30;99.90
23629;DHT22;11991;57.150;-2.134;2023-06-10T13:47:37;18.40;99.90
23629;DHT22;11991;57.150;-2.134;2023-06-10T13:50:06;18.30;99.90
23629;DHT22;11991;57.150;-2.134;2023-06-10T13:52:33;18.30;99.90
23629;DHT22;11991;57.150;-2.134;2023-06-10T13:55:00;18.30;99.90
23629;DHT22;11991;57.150;-2.134;2023-06-10T13:57:27;18.20;99.90
23629;DHT22;11991;57.150;-2.134;2023-06-10T13:59:55;18.10;99.90
23629;DHT22;11991;57.150;-2.134;2023-06-10T14:02:23;18.10;99.90
23629;DHT22;11991;57.150;-2.134;2023-06-10T14:04:50;18.20;99.90
23629;DHT22;11991;57.150;-2.134;2023-06-10T14:07:18;18.20;99.90
23629;DHT22;11991;57.150;-2.134;2023-06-10T14:09:45;18.30;99.90
23629;DHT22;11991;57.150;-2.134;2023-06-10T14:12:12;18.40;99.90
23629;DHT22;11991;57.150;-2.134;2023-06-10T14:14:39;18.40;99.90
23629;DHT22;11991;57.150;-2.134;2023-06-10T14:17:06;18.40;99.90
23629;DHT22;11991;57.150;-2.134;2023-06-10T14:19:34;18.40;99.90
23629;DHT22;11991;57.150;-2.134;2023-06-10T14:22:01;18.50;99.90
23629;DHT22;11991;57.150;-2.134;2023-06-10T14:24:31;18.50;99.90
23629;DHT22;11991;57.150;-2.134;2023-06-10T14:26:58;18.60;99.90
23629;DHT22;11991;57.150;-2.134;2023-06-10T14:29:25;18.60;99.90
23629;DHT22;11991;57.150;-2.134;2023-06-10T14:31:55;18.60;99.90
23629;DHT22;11991;57.150;-2.134;2023-06-10T14:34:23;18.60;99.90
23629;DHT22;11991;57.150;-2.134;2023-06-10T14:36:55;18.70;99.90
23629;DHT22;11991;57.150;-2.134;2023-06-10T14:39:22;18.80;99.90
23629;DHT22;11991;57.150;-2.134;2023-06-10T14:41:50;18.80;99.90
23629;DHT22;11991;57.150;-2.134;2023-06-10T14:44:19;18.90;99.90
23629;DHT22;11991;57.150;-2.134;2023-06-10T14:46:46;18.90;99.90
23629;DHT22;11991;57.150;-2.134;2023-06-10T14:49:14;19.00;99.90
23629;DHT22;11991;57.150;-2.134;2023-06-10T14:51:42;19.00;99.90
23629;DHT22;11991;57.150;-2.134;2023-06-10T14:54:09;19.00;99.90
23629;DHT22;11991;57.150;-2.134;2023-06-10T14:56:36;18.90;99.90
23629;DHT22;11991;57.150;-2.134;2023-06-10T14:59:04;18.90;99.90
23629;DHT22;11991;57.150;-2.134;2023-06-10T15:01:31;18.80;99.90
23629;DHT22;11991;57.150;-2.134;2023-06-10T15:03:58;18.80;99.90
23629;DHT22;11991;57.150;-2.134;2023-06-10T15:06:25;18.80;99.90
23629;DHT22;11991;57.150;-2.134;2023-06-10T15:08:52;18.90;99.90
23629;DHT22;11991;57.150;-2.134;2023-06-10T15:11:19;18.90;99.90
23629;DHT22;11991;57.150;-2.134;2023-06-10T15:13:47;18.80;99.90
23629;DHT22;11991;57.150;-2.134;2023-06-10T15:16:15;18.90;99.90
23629;DHT22;11991;57.150;-2.134;2023-06-10T15:18:42;18.90;99.90
23629;DHT22;11991;57.150;-2.134;2023-06-10T15:21:09;18.90;99.90
23629;DHT22;11991;57.150;-2.134;2023-06-10T15:23:36;18.90;99.90
23629;DHT22;11991;57.150;-2.134;2023-06-10T15:26:04;18.90;99.90
23629;DHT22;11991;57.150;-2.134;2023-06-10T15:28:31;19.00;99.90
23629;DHT22;11991;57.150;-2.134;2023-06-10T15:30:58;19.10;99.90
23629;DHT22;11991;57.150;-2.134;2023-06-10T15:33:25;19.00;99.90
23629;DHT22;11991;57.150;-2.134;2023-06-10T15:35:52;19.00;99.90
23629;DHT22;11991;57.150;-2.134;2023-06-10T15:38:19;18.90;99.90
23629;DHT22;11991;57.150;-2.134;2023-06-10T15:40:47;18.90;99.90
23629;DHT22;11991;57.150;-2.134;2023-06-10T15:43:14;18.90;99.90
23629;DHT22;11991;57.150;-2.134;2023-06-10T15:45:41;18.80;99.90
23629;DHT22;11991;57.150;-2.134;2023-06-10T15:48:08;18.80;99.90
23629;DHT22;11991;57.150;-2.134;2023-06-10T15:50:36;18.80;99.90